Flight Track Log - Related Links

Times and Time Zones

All times are in EDT time to prevent confusion due to time zone crossing. See the JBU24 flight status page for this flight to view local times or setup timezone preferences in your user account.

Time Position Orientation Groundspeed Altitude Reporting Facility
EDT Latitude Longitude Course Direction KTS MPH feet Rate Location/Type
Fri 05:18:33 PM 40.6500 -73.7000 316° Northwest 197 227 2,400  Level New York TRACON
Fri 05:19:33 PM 40.6667 -73.6167 75° East 251 289 5,100 2,800 Climbing New York TRACON
Fri 05:20:00 PM 40.7970 -73.9970 323° Northwest  Level FlightAware Approximate
Fri 05:20:33 PM 40.6833 -73.5333 75° East 280 322 8,000  Level New York TRACON
Fri 05:21:00 PM 40.8535 -74.0719 311° West  Level FlightAware Approximate
Fri 05:21:33 PM 40.7667 -73.5167 North 275 316 11,000  Level New York TRACON
Fri 05:22:00 PM 40.9067 -74.1516 311° West  Level FlightAware Approximate
Fri 05:22:33 PM 40.8333 -73.5333 349° North 282 325 13,800  Level New York TRACON
Fri 05:23:00 PM 40.9635 -74.2268 316° Northwest  Level FlightAware Approximate
Fri 05:23:33 PM 40.9167 -73.5667 343° North 291 335 16,700  Level New York TRACON
Fri 05:24:33 PM 40.9667 -73.6333 315° West 284 327 17,100 200 Climbing New York TRACON
Fri 05:25:33 PM 41.0333 -73.7000 323° Northwest 283 326 17,100  Level New York TRACON
Fri 05:26:39 PM 41.0667 -73.8000 294° West 281 323 17,100  Level New York TRACON
Fri 05:27:39 PM 41.0833 -73.9000 282° West 280 322 17,100  Level New York TRACON
Fri 05:28:33 PM 41.1000 -74.0000 283° West 283 326 17,100 -48 Level New York TRACON
Fri 05:29:43 PM 41.1250 -74.1067 287° West 284 327 17,000 -46 Descending New York Center
Fri 05:30:44 PM 41.1453 -74.1958 287° West 279 321 17,000  Level New York Center
Fri 05:31:42 PM 41.1692 -74.3047 286° West 284 327 17,000  Level New York Center
Fri 05:32:42 PM 41.1894 -74.3939 287° West 284 327 17,000  Level New York Center
Fri 05:33:43 PM 41.2108 -74.5025 285° West 284 327 17,000  Level New York Center
Fri 05:34:43 PM 41.2353 -74.5894 291° West 284 327 17,000 1,311 Level New York Center
Fri 05:35:42 PM 41.2886 -74.6781 309° West 281 323 19,600 2,521 Climbing New York Center
Fri 05:36:42 PM 41.3378 -74.7639 307° West 287 330 22,000 1,190 Climbing New York Center
Fri 05:37:43 PM 41.3911 -74.8500 310° West 292 336 22,000  Level New York Center
Fri 05:38:43 PM 41.4422 -74.9333 309° West 292 336 22,000  Level New York Center
Fri 05:39:44 PM 41.4933 -75.0194 308° West 292 336 22,000  Level New York Center
Fri 05:40:41 PM 41.5444 -75.1031 309° West 292 336 22,000  Level New York Center
Fri 05:41:41 PM 41.5956 -75.1869 309° West 292 336 22,000  Level New York Center
Fri 05:42:42 PM 41.6486 -75.2736 309° West 292 336 22,000  Level New York Center
Fri 05:43:43 PM 41.6994 -75.3606 308° West 298 343 22,000  Level New York Center
Fri 05:44:44 PM 41.7500 -75.4472 308° West 298 343 22,000  Level New York Center
Fri 05:45:41 PM 41.8031 -75.5317 310° West 298 343 22,000  Level New York Center
Fri 05:46:41 PM 41.8517 -75.6158 308° West 298 343 22,000 -99 Level New York Center
Fri 05:47:42 PM 41.9022 -75.7006 309° West 292 336 21,800 -694 Descending New York Center
Fri 05:48:42 PM 41.9528 -75.7878 308° West 292 336 20,600 -1,050 Descending New York Center
Fri 05:49:42 PM 42.0033 -75.8728 309° West 292 336 19,700 -908 Descending New York Center
Fri 05:50:41 PM 42.0514 -75.9600 307° West 292 336 18,800 -900 Descending New York Center
Fri 05:51:42 PM 42.1000 -76.0422 309° West 287 330 17,900 -843 Descending New York Center
Fri 05:52:42 PM 42.1525 -76.1219 312° West 287 330 17,100 -446 Descending New York Center
Fri 05:53:43 PM 42.2353 -76.1342 354° North 271 312 17,000 -545 Descending New York Center
Fri 05:54:43 PM 42.3169 -76.1214 North 277 319 16,000 -1,488 Descending New York Center
Fri 05:55:44 PM 42.4031 -76.1086 North 288 331 14,000 -1,944 Descending New York Center
Fri 05:56:31 PM 42.4725 -76.1025 North 292 336 12,500 -1,667 Descending Boston Center
Fri 05:57:32 PM 42.5500 -76.0931 North 283 326 11,000 -1,190 Descending Boston Center
Fri 05:58:32 PM 42.6253 -76.0861 North 273 314 10,100 -1,200 Descending Boston Center
Fri 05:59:27 PM 42.6944 -76.0761 North 267 307 8,700 -1,623 Descending Boston Center
Fri 06:00:34 PM 42.7719 -76.0694 North 264 304 6,800 -1,748 Descending Boston Center
Fri 06:01:34 PM 42.8531 -76.0686 360° North 264 304 5,000 -1,388 Descending Boston Center
Fri 06:02:35 PM 42.9225 -76.0528 North 254 292 4,000 -609 Descending Boston Center
Fri 06:03:42 PM 42.9836 -76.0336 13° North 206 237 3,700 -520 Descending Boston Center
Fri 06:04:42 PM 43.0342 -76.0194 12° North 161 185 2,900 -1,096 Descending Boston Center
Fri 06:05:37 PM 43.0647 -76.0411 333° Northwest 129 148 1,600 -1,101 Descending Boston Center
Fri 06:06:31 PM 43.0886 -76.0739 315° West 130 150 900 -778 Descending Boston Center

Login

Don't have an account? Register now (free) for customized features, flight alerts, and more!